Time;durP1;ratioP1;P1;durP2;ratioP2;P2;SDS_P1;SDS_P2;PMS_P1;PMS_P2;Temp;Humidity;BMP_temperature;BMP_pressure;BME280_temperature;BME280_humidity;BME280_pressure;Samples;Min_cycle;Max_cycle;Signal;HPM_P1;HPM_P2
2022/05/21 00:01:40;;;;;;;106.80;11.30;;;;;;;38.34;19.42;100038.38;5096270;28;20031;-64
2022/05/21 00:04:08;;;;;;;88.65;9.77;;;;;;;37.93;19.76;100042.56;5083019;28;20027;-63
2022/05/21 00:06:35;;;;;;;109.28;10.77;;;;;;;38.28;19.66;100043.13;5099092;28;20035;-64
2022/05/21 00:09:03;;;;;;;102.65;10.90;;;;;;;38.61;19.48;100034.75;5082734;28;20038;-65
2022/05/21 00:11:33;;;;;;;91.10;9.05;;;;;;;37.98;19.46;100039.09;5100415;28;20035;-64
2022/05/21 00:14:00;;;;;;;101.50;9.50;;;;;;;38.33;19.79;100041.69;5097698;28;20085;-63
2022/05/21 00:16:30;;;;;;;106.20;10.57;;;;;;;39.15;18.37;100033.13;5099977;28;20055;-63
2022/05/21 00:18:57;;;;;;;68.72;9.90;;;;;;;39.22;18.48;100032.00;5081271;28;20028;-67
2022/05/21 00:21:24;;;;;;;85.53;9.85;;;;;;;38.67;18.74;100037.78;5096142;28;20146;-62
2022/05/21 00:23:51;;;;;;;79.50;9.43;;;;;;;38.91;18.32;100046.41;5098436;28;20043;-64
2022/05/21 00:26:21;;;;;;;73.50;7.57;;;;;;;38.80;18.38;100046.94;5095802;28;20025;-63
2022/05/21 00:28:50;;;;;;;80.30;9.13;;;;;;;38.68;18.62;100045.81;5081991;28;20487;-64
2022/05/21 00:31:19;;;;;;;65.68;7.82;;;;;;;38.89;18.42;100051.78;5096854;28;20058;-64
2022/05/21 00:33:48;;;;;;;59.75;7.93;;;;;;;38.84;18.30;100041.06;5097740;28;20482;-64
2022/05/21 00:36:18;;;;;;;78.38;8.45;;;;;;;38.68;18.73;100031.63;5097164;28;20032;-64
2022/05/21 00:38:45;;;;;;;75.53;8.23;;;;;;;38.45;18.68;100035.09;5101012;28;20024;-64
2022/05/21 00:41:20;;;;;;;70.78;7.35;;;;;;;38.02;19.47;100039.75;5103763;28;20060;-65
2022/05/21 00:43:56;;;;;;;67.15;7.72;;;;;;;37.66;20.06;100045.28;5084869;28;20051;-64
2022/05/21 00:46:31;;;;;;;63.78;7.05;;;;;;;35.91;21.92;100050.88;5095408;28;20110;-62
2022/05/21 00:49:13;;;;;;;56.28;7.15;;;;;;;35.64;22.40;100054.97;5098352;28;20032;-64
2022/05/21 00:51:55;;;;;;;48.65;6.15;;;;;;;36.05;21.74;100055.28;5095919;28;20067;-62
2022/05/21 00:54:33;;;;;;;64.90;6.68;;;;;;;36.49;21.51;100048.50;5106982;28;20071;-62
2022/05/21 00:57:09;;;;;;;64.30;7.38;;;;;;;36.51;22.01;100059.38;5104238;28;20023;-62
2022/05/21 00:59:49;;;;;;;55.30;7.15;;;;;;;35.99;22.05;100052.25;5108379;28;20038;-62
2022/05/21 01:02:28;;;;;;;61.47;6.53;;;;;;;35.71;23.06;100037.75;5106817;28;20042;-63
2022/05/21 01:04:59;;;;;;;56.40;7.07;;;;;;;35.47;23.36;100056.31;5081579;28;20385;-64
2022/05/21 01:07:27;;;;;;;45.83;5.88;;;;;;;35.36;22.86;100050.19;5106277;28;20058;-63
2022/05/21 01:09:56;;;;;;;38.97;5.40;;;;;;;35.27;23.46;100059.31;5101799;28;20027;-62
2022/05/21 01:12:27;;;;;;;49.58;5.70;;;;;;;34.51;24.45;100059.88;5101582;28;20038;-63
2022/05/21 01:15:00;;;;;;;42.40;6.43;;;;;;;34.39;24.63;100057.00;5106922;28;20072;-63
2022/05/21 01:17:27;;;;;;;47.53;6.47;;;;;;;34.37;24.48;100060.25;5103971;28;20020;-62
2022/05/21 01:20:02;;;;;;;40.05;5.30;;;;;;;34.30;24.96;100063.25;5108907;28;20020;-61
2022/05/21 01:22:30;;;;;;;39.13;5.82;;;;;;;34.35;25.18;100051.44;5100261;28;20020;-63
2022/05/21 01:24:57;;;;;;;47.35;6.30;;;;;;;34.14;25.07;100068.91;5101975;28;20055;-61
2022/05/21 01:27:27;;;;;;;45.67;5.82;;;;;;;34.20;25.47;100055.84;5097576;28;20111;-62
2022/05/21 01:29:56;;;;;;;45.28;5.70;;;;;;;34.17;25.30;100066.00;5103538;28;20028;-62
2022/05/21 01:32:23;;;;;;;52.70;6.10;;;;;;;34.09;25.87;100067.41;5097123;28;20097;-63
2022/05/21 01:34:50;;;;;;;46.22;6.00;;;;;;;34.03;25.73;100079.66;5106961;28;20020;-63
2022/05/21 01:37:16;;;;;;;43.42;5.38;;;;;;;33.62;26.12;100069.75;5103276;28;20138;-62
2022/05/21 01:39:43;;;;;;;29.40;4.57;;;;;;;33.17;26.95;100075.94;5100257;28;20024;-63
2022/05/21 01:42:10;;;;;;;25.13;4.03;;;;;;;33.16;27.50;100085.63;5095568;28;20032;-65
2022/05/21 01:44:40;;;;;;;35.92;4.90;;;;;;;32.88;27.90;100084.19;5101392;28;20043;-64
2022/05/21 01:47:13;;;;;;;37.72;5.00;;;;;;;32.56;28.43;100086.78;5098416;28;20088;-63
2022/05/21 01:49:41;;;;;;;23.95;4.15;;;;;;;32.52;28.88;100098.13;5098379;28;20028;-63
2022/05/21 01:52:10;;;;;;;28.80;4.95;;;;;;;32.33;28.99;100099.66;5099606;28;20062;-64
2022/05/21 01:54:38;;;;;;;30.33;4.60;;;;;;;32.28;29.67;100099.34;5096376;28;20028;-63
2022/05/21 01:57:06;;;;;;;34.72;5.70;;;;;;;32.22;29.34;100107.44;5070037;28;20382;-62
2022/05/21 01:59:33;;;;;;;29.35;4.88;;;;;;;31.74;30.09;100108.59;5098613;28;20102;-63
2022/05/21 02:02:01;;;;;;;31.75;5.57;;;;;;;31.65;30.45;100121.56;5103999;28;20020;-64
2022/05/21 02:04:28;;;;;;;24.83;5.03;;;;;;;31.52;30.76;100122.13;5104347;28;20024;-63
2022/05/21 02:06:55;;;;;;;35.38;6.10;;;;;;;31.32;31.26;100129.63;5111044;28;20019;-62
2022/05/21 02:09:22;;;;;;;36.03;5.22;;;;;;;31.12;31.91;100128.66;5111825;28;20035;-62
2022/05/21 02:11:49;;;;;;;39.70;6.45;;;;;;;30.86;32.47;100130.94;5112787;28;20020;-62
2022/05/21 02:14:16;;;;;;;35.13;6.43;;;;;;;30.66;33.13;100127.13;5094990;28;20028;-62
2022/05/21 02:16:43;;;;;;;46.47;7.70;;;;;;;30.38;33.11;100139.41;5113001;28;20385;-61
2022/05/21 02:19:11;;;;;;;35.95;6.03;;;;;;;30.29;33.45;100136.25;5113206;28;20024;-62
2022/05/21 02:21:40;;;;;;;32.60;5.25;;;;;;;30.16;34.16;100144.34;5112811;28;20034;-62
2022/05/21 02:24:08;;;;;;;40.85;5.90;;;;;;;29.98;34.94;100152.91;5112880;28;20038;-63
2022/05/21 02:26:37;;;;;;;39.63;5.57;;;;;;;29.78;35.06;100163.81;5110650;28;20027;-63
2022/05/21 02:29:05;;;;;;;41.47;5.63;;;;;;;29.54;36.24;100175.94;5113251;28;20031;-62
2022/05/21 02:31:31;;;;;;;33.83;5.65;;;;;;;29.32;37.03;100168.81;5112878;28;20024;-65
2022/05/21 02:33:59;;;;;;;35.65;5.55;;;;;;;29.30;36.91;100177.63;5113221;28;20165;-63
2022/05/21 02:39:28;;;;;;;34.70;5.57;;;;;;;29.00;37.29;100188.50;5113320;28;20038;-64
2022/05/21 02:42:00;;;;;;;31.42;4.90;;;;;;;28.97;37.59;100178.09;5110466;28;20016;-63
2022/05/21 02:44:29;;;;;;;34.85;5.55;;;;;;;28.80;38.42;100188.09;5112722;28;20031;-63
2022/05/21 02:46:56;;;;;;;37.00;5.45;;;;;;;28.67;38.77;100186.91;5112822;28;20054;-64
2022/05/21 02:49:23;;;;;;;33.08;5.20;;;;;;;28.67;38.59;100195.28;5112799;28;20064;-64
2022/05/21 02:51:50;;;;;;;34.00;5.38;;;;;;;28.49;39.61;100201.69;5112442;28;20077;-62
2022/05/21 02:54:18;;;;;;;31.90;5.13;;;;;;;28.31;39.86;100203.66;5113149;28;20091;-62
2022/05/21 02:56:48;;;;;;;45.53;7.32;;;;;;;28.15;40.13;100208.81;5113473;28;20019;-62
2022/05/21 02:59:15;;;;;;;39.83;5.55;;;;;;;28.12;40.01;100223.56;5112571;28;20503;-62
2022/05/21 03:01:43;;;;;;;49.15;6.07;;;;;;;27.96;40.41;100223.94;5113355;28;20027;-62
2022/05/21 03:04:10;;;;;;;36.97;5.32;;;;;;;27.91;41.12;100227.91;5113340;28;20092;-62
2022/05/21 03:06:37;;;;;;;47.38;6.35;;;;;;;27.78;40.93;100231.44;5110683;28;20047;-62
2022/05/21 03:11:49;;;;;;;45.38;5.78;;;;;;;27.44;42.14;100231.66;5111222;28;20092;-62
2022/05/21 03:14:16;;;;;;;41.20;6.03;;;;;;;27.31;42.42;100241.59;5112516;28;20027;-61
2022/05/21 03:16:43;;;;;;;41.42;6.78;;;;;;;27.40;41.88;100248.41;5113114;28;20063;-61
2022/05/21 03:19:10;;;;;;;39.20;5.90;;;;;;;27.29;41.86;100247.56;5112877;28;20027;-61
2022/05/21 03:21:37;;;;;;;50.45;5.40;;;;;;;27.29;41.74;100255.94;5112692;28;20023;-62
2022/05/21 03:24:04;;;;;;;42.90;5.57;;;;;;;27.21;41.62;100261.84;5112452;28;20475;-61
2022/05/21 03:26:31;;;;;;;44.85;5.95;;;;;;;27.05;41.94;100264.91;5111380;28;20355;-62
2022/05/21 03:28:58;;;;;;;35.42;5.20;;;;;;;26.92;41.91;100267.19;5094044;28;20407;-61
2022/05/21 03:31:25;;;;;;;38.88;5.93;;;;;;;26.98;41.55;100276.81;5110761;28;20023;-61
2022/05/21 03:33:52;;;;;;;41.25;5.47;;;;;;;26.80;41.77;100281.44;5111221;28;20420;-62
2022/05/21 03:36:19;;;;;;;42.22;5.72;;;;;;;26.76;41.55;100286.19;5111398;28;20088;-61
2022/05/21 03:38:45;;;;;;;35.78;5.40;;;;;;;26.83;41.36;100291.81;5110815;28;20069;-61
2022/05/21 03:41:12;;;;;;;31.75;6.07;;;;;;;26.83;41.02;100302.16;5093309;28;20038;-61
2022/05/21 03:43:39;;;;;;;31.13;4.97;;;;;;;26.72;41.41;100302.88;5110245;28;20012;-61
2022/05/21 03:46:06;;;;;;;38.88;5.68;;;;;;;26.73;41.39;100309.25;5094532;28;20390;-61
2022/05/21 03:48:33;;;;;;;44.75;5.20;;;;;;;26.50;42.09;100317.78;5112825;28;20059;-62
2022/05/21 03:51:00;;;;;;;30.35;5.30;;;;;;;26.37;42.38;100322.81;5112556;28;20080;-62
2022/05/21 03:53:28;;;;;;;52.10;5.88;;;;;;;26.42;42.48;100330.06;5112419;28;20035;-61
2022/05/21 03:55:56;;;;;;;28.92;5.28;;;;;;;26.43;43.44;100340.81;5112613;28;20023;-61
2022/05/21 03:58:23;;;;;;;32.67;5.03;;;;;;;26.27;44.43;100354.13;5112666;28;20020;-61
2022/05/21 04:00:50;;;;;;;31.50;5.57;;;;;;;26.18;44.61;100368.34;5112544;28;20420;-61
2022/05/21 04:03:17;;;;;;;31.10;5.55;;;;;;;26.09;44.89;100365.06;5112675;28;20023;-62
2022/05/21 04:05:44;;;;;;;33.67;5.85;;;;;;;26.07;44.97;100361.84;5112584;28;20055;-61
2022/05/21 04:08:11;;;;;;;34.72;6.25;;;;;;;26.06;45.29;100376.16;5112327;28;20032;-61
2022/05/21 04:10:38;;;;;;;34.38;5.75;;;;;;;25.90;45.40;100373.56;5112547;28;20040;-62
2022/05/21 04:13:05;;;;;;;58.38;5.95;;;;;;;25.90;45.38;100374.34;5112510;28;20089;-61
2022/05/21 04:15:31;;;;;;;28.27;5.45;;;;;;;25.83;45.75;100376.22;5112570;28;20059;-62
2022/05/21 04:17:58;;;;;;;30.08;5.00;;;;;;;25.74;45.32;100381.28;5112359;28;20020;-62
2022/05/21 04:20:25;;;;;;;24.17;5.07;;;;;;;25.66;45.05;100393.44;5112541;28;20047;-59
2022/05/21 04:22:52;;;;;;;26.73;4.68;;;;;;;25.57;45.14;100394.53;5112095;28;20105;-61
2022/05/21 04:25:19;;;;;;;21.23;4.75;;;;;;;25.58;45.34;100401.69;5112477;28;20027;-62
2022/05/21 04:27:46;;;;;;;19.30;4.45;;;;;;;25.58;44.78;100401.69;5112424;28;20381;-61
2022/05/21 04:30:20;;;;;;;28.40;4.97;;;;;;;25.49;45.32;100398.34;5112270;28;20114;-61
2022/05/21 04:32:48;;;;;;;20.55;5.10;;;;;;;25.52;44.46;100405.97;5112324;28;20066;-62
2022/05/21 04:35:16;;;;;;;21.88;4.50;;;;;;;25.43;44.27;100413.75;5112173;28;20103;-62
2022/05/21 04:37:44;;;;;;;24.20;4.97;;;;;;;25.45;45.19;100414.19;5112132;28;20114;-60
2022/05/21 04:40:18;;;;;;;43.58;5.32;;;;;;;25.41;45.33;100418.91;5112345;28;20031;-61
2022/05/21 04:42:45;;;;;;;26.20;4.80;;;;;;;25.32;45.58;100421.16;5111720;28;20121;-62
2022/05/21 04:45:13;;;;;;;28.75;5.07;;;;;;;25.34;45.49;100423.56;5094052;28;20024;-61
2022/05/21 04:47:40;;;;;;;22.80;4.82;;;;;;;25.23;45.41;100418.59;5111911;28;20114;-61
2022/05/21 04:50:08;;;;;;;29.20;4.93;;;;;;;25.24;45.55;100434.13;5114942;28;20385;-61
2022/05/21 04:52:36;;;;;;;29.60;5.20;;;;;;;25.13;45.93;100435.09;5097259;28;20134;-61
2022/05/21 04:55:07;;;;;;;33.13;5.18;;;;;;;25.10;45.76;100447.75;5099864;28;20515;-61
2022/05/21 04:57:34;;;;;;;37.63;5.90;;;;;;;25.08;46.06;100447.34;5111516;28;20080;-62
2022/05/21 05:00:00;;;;;;;32.05;5.88;;;;;;;24.98;46.59;100454.28;5107681;28;20120;-61
2022/05/21 05:02:28;;;;;;;30.95;5.53;;;;;;;25.04;46.95;100456.78;5110380;28;20028;-61
2022/05/21 05:04:55;;;;;;;22.27;5.55;;;;;;;25.02;46.82;100461.91;5097259;28;20042;-61
2022/05/21 05:07:23;;;;;;;32.08;5.57;;;;;;;24.93;46.91;100476.00;5112148;28;20035;-61
2022/05/21 05:09:51;;;;;;;27.25;4.65;;;;;;;24.87;42.62;100472.72;5115401;28;20038;-61
2022/05/21 05:12:20;;;;;;;31.75;4.97;;;;;;;24.81;39.98;100468.66;5097297;28;20043;-61
2022/05/21 05:14:46;;;;;;;58.03;6.28;;;;;;;24.77;38.94;100476.09;5114815;28;20023;-63
2022/05/21 05:17:14;;;;;;;58.05;7.45;;;;;;;24.70;38.18;100478.75;5115360;28;20362;-60
2022/05/21 05:19:41;;;;;;;59.55;7.40;;;;;;;24.60;38.71;100484.91;5113591;28;20024;-62
2022/05/21 05:22:09;;;;;;;49.60;5.82;;;;;;;24.54;38.10;100489.13;5110676;28;20027;-61
2022/05/21 05:24:39;;;;;;;42.17;5.95;;;;;;;24.36;38.20;100494.28;5115019;28;20034;-61
2022/05/21 05:27:07;;;;;;;30.98;5.00;;;;;;;24.22;38.63;100500.28;5114921;28;20034;-62
2022/05/21 05:29:34;;;;;;;37.92;5.22;;;;;;;24.12;38.89;100498.09;5114819;28;20020;-61
2022/05/21 05:32:01;;;;;;;42.90;5.65;;;;;;;24.04;38.71;100501.84;5115169;28;20043;-61
2022/05/21 05:34:29;;;;;;;52.83;6.25;;;;;;;24.01;39.09;100505.38;5111897;28;20035;-61
2022/05/21 05:36:56;;;;;;;58.20;7.50;;;;;;;23.94;38.79;100513.53;5108832;28;20032;-61
2022/05/21 05:39:22;;;;;;;41.22;6.80;;;;;;;23.89;39.13;100508.25;5094962;28;20072;-61
2022/05/21 05:41:51;;;;;;;50.75;7.05;;;;;;;24.05;39.86;100520.13;5114769;28;20063;-61
2022/05/21 05:44:19;;;;;;;53.58;6.53;;;;;;;24.01;41.78;100519.25;5106709;28;20133;-61
2022/05/21 05:46:46;;;;;;;49.78;6.75;;;;;;;23.93;43.36;100520.25;5113000;28;20073;-61
2022/05/21 05:49:13;;;;;;;28.73;5.97;;;;;;;24.06;45.06;100530.09;5113039;28;20111;-62
2022/05/21 05:51:40;;;;;;;30.88;5.93;;;;;;;24.00;46.25;100520.41;5112426;28;20058;-60
2022/05/21 05:54:06;;;;;;;23.90;5.55;;;;;;;24.02;45.97;100523.63;5112224;28;20122;-60
2022/05/21 05:56:33;;;;;;;27.58;5.55;;;;;;;24.03;47.24;100522.47;5112441;28;20020;-61
2022/05/21 06:01:45;;;;;;;25.33;5.35;;;;;;;23.87;47.39;100536.34;5114541;28;20044;-61
2022/05/21 06:04:13;;;;;;;27.38;5.40;;;;;;;23.78;48.14;100539.31;5114629;28;20024;-61
2022/05/21 06:06:39;;;;;;;30.27;5.60;;;;;;;23.73;48.46;100549.91;5114418;28;20032;-60
2022/05/21 06:09:09;;;;;;;131.55;12.40;;;;;;;23.80;42.84;100548.09;5114275;28;20042;-61
2022/05/21 06:11:38;;;;;;;171.90;15.25;;;;;;;23.64;40.26;100541.72;5114236;28;20043;-60
2022/05/21 06:14:05;;;;;;;128.50;12.85;;;;;;;23.55;40.57;100554.16;5114134;28;20462;-60
2022/05/21 06:16:33;;;;;;;155.75;13.13;;;;;;;23.45;40.59;100552.69;5114386;28;20144;-61
2022/05/21 06:19:00;;;;;;;130.93;12.52;;;;;;;23.37;40.57;100548.94;5097777;28;20028;-60
2022/05/21 06:21:27;;;;;;;113.43;12.52;;;;;;;23.27;40.88;100557.75;5114098;28;20380;-60
2022/05/21 06:23:54;;;;;;;133.60;12.02;;;;;;;23.18;41.04;100566.25;5113905;28;20036;-60
2022/05/21 06:26:21;;;;;;;130.25;12.77;;;;;;;23.13;41.23;100568.44;5114068;28;20119;-61
2022/05/21 06:28:49;;;;;;;120.80;12.13;;;;;;;23.18;40.99;100563.47;5114024;28;20071;-60
2022/05/21 06:31:17;;;;;;;124.30;12.10;;;;;;;23.08;41.29;100563.97;5114042;28;20113;-61
2022/05/21 06:33:44;;;;;;;140.27;12.55;;;;;;;22.97;41.36;100567.59;5113848;28;20031;-60
2022/05/21 06:36:15;;;;;;;144.13;13.02;;;;;;;22.96;41.61;100574.28;5113784;28;20051;-60
2022/05/21 06:38:44;;;;;;;133.18;11.88;;;;;;;22.92;41.62;100566.69;5113734;28;20027;-61
2022/05/21 06:41:12;;;;;;;122.82;11.70;;;;;;;22.91;41.69;100567.03;5113862;28;20372;-61
2022/05/21 06:43:39;;;;;;;115.28;11.55;;;;;;;22.82;42.08;100572.72;5113537;28;20032;-60
2022/05/21 06:46:06;;;;;;;99.18;10.77;;;;;;;22.76;42.44;100564.97;5113747;28;20127;-60
2022/05/21 06:48:33;;;;;;;93.85;10.57;;;;;;;22.73;42.85;100569.25;5113349;28;20039;-60
2022/05/21 06:51:05;;;;;;;97.43;9.93;;;;;;;22.65;42.68;100563.84;5112803;28;20434;-61
2022/05/21 06:53:33;;;;;;;108.22;9.15;;;;;;;22.74;42.53;100573.63;5113395;28;20035;-60
2022/05/21 06:56:04;;;;;;;75.82;7.63;;;;;;;22.63;43.25;100560.63;5095624;28;20039;-61
2022/05/21 06:58:31;;;;;;;74.78;8.55;;;;;;;22.49;43.35;100564.59;5113478;28;20031;-61
2022/05/21 07:00:57;;;;;;;88.45;8.35;;;;;;;22.38;43.32;100571.75;5096479;28;20028;-61
2022/05/21 07:03:24;;;;;;;173.45;10.00;;;;;;;22.22;44.14;100573.59;5113558;28;20088;-61
2022/05/21 07:08:39;;;;;;;58.88;7.25;;;;;;;22.15;43.86;100565.88;5113202;28;20447;-60
2022/05/21 07:11:06;;;;;;;56.88;6.90;;;;;;;22.18;44.27;100573.50;5112981;28;20023;-61
2022/05/21 07:13:33;;;;;;;59.67;6.40;;;;;;;22.11;44.32;100580.75;5112916;28;20118;-61
2022/05/21 07:16:01;;;;;;;50.50;6.28;;;;;;;21.99;44.36;100582.34;5113278;28;20055;-61
2022/05/21 07:18:28;;;;;;;51.45;6.20;;;;;;;21.90;44.59;100586.34;5113159;28;20443;-60
2022/05/21 07:20:56;;;;;;;55.25;6.20;;;;;;;21.98;44.60;100585.44;5113098;28;20016;-61
2022/05/21 07:23:25;;;;;;;47.28;5.57;;;;;;;21.93;44.63;100593.97;5112962;28;20100;-61
2022/05/21 07:25:52;;;;;;;37.40;4.90;;;;;;;21.95;44.58;100598.00;5112616;28;20086;-61
2022/05/21 07:28:19;;;;;;;31.95;4.57;;;;;;;22.02;44.24;100603.78;5113000;28;20035;-61
2022/05/21 07:30:48;;;;;;;40.88;3.95;;;;;;;21.90;44.37;100601.03;5112803;28;20027;-61
2022/05/21 07:33:18;;;;;;;25.10;3.75;;;;;;;21.78;44.59;100609.28;5112967;28;20076;-62
2022/05/21 07:35:46;;;;;;;24.33;3.75;;;;;;;21.81;44.37;100614.13;5113066;28;20035;-61
2022/05/21 07:38:14;;;;;;;31.50;3.97;;;;;;;21.78;44.80;100614.00;5094779;28;20028;-61
2022/05/21 07:40:43;;;;;;;29.60;3.40;;;;;;;21.79;44.48;100610.91;5112747;28;20034;-61
2022/05/21 07:43:13;;;;;;;36.05;3.92;;;;;;;21.81;44.71;100614.13;5112429;28;20036;-61
2022/05/21 07:45:41;;;;;;;44.08;3.72;;;;;;;21.82;44.51;100614.94;5112938;28;20106;-61
2022/05/21 07:48:11;;;;;;;26.17;3.50;;;;;;;21.77;44.28;100613.22;5112601;28;20395;-60
2022/05/21 07:50:40;;;;;;;18.67;3.03;;;;;;;21.72;44.61;100607.88;5113069;28;20027;-61
2022/05/21 07:53:18;;;;;;;16.92;3.35;;;;;;;21.69;44.41;100627.91;5112194;28;20039;-61
2022/05/21 07:55:51;;;;;;;14.23;3.00;;;;;;;21.80;44.35;100617.25;5112604;28;20071;-61
2022/05/21 07:58:18;;;;;;;16.83;3.03;;;;;;;21.81;44.20;100627.97;5112721;28;20027;-61
2022/05/21 08:00:47;;;;;;;62.05;5.10;;;;;;;21.88;43.99;100630.16;5112311;28;20432;-60
2022/05/21 08:03:14;;;;;;;19.20;3.08;;;;;;;21.83;43.95;100622.88;5112810;28;20040;-60
2022/05/21 08:05:42;;;;;;;23.17;5.57;;;;;;;21.75;44.61;100628.53;5112459;28;20028;-61
2022/05/21 08:08:10;;;;;;;22.55;6.38;;;;;;;21.76;44.41;100627.38;5112580;28;20039;-61
2022/05/21 08:10:40;;;;;;;21.05;4.00;;;;;;;21.74;44.40;100630.50;5112230;28;20016;-61
2022/05/21 08:13:07;;;;;;;19.15;3.70;;;;;;;21.74;44.18;100624.16;5112539;28;20031;-61
2022/05/21 08:15:34;;;;;;;22.15;3.72;;;;;;;21.81;44.40;100621.63;5112601;28;20023;-60
2022/05/21 08:18:04;;;;;;;22.73;3.40;;;;;;;21.52;44.99;100630.88;5112320;28;20023;-60
2022/05/21 08:20:33;;;;;;;23.90;3.42;;;;;;;21.32;45.62;100629.75;5112668;28;20140;-60
2022/05/21 08:28:29;;;;;;;;;;;;;;;21.04;46.27;100630.31;5114848;28;20119;-61
2022/05/21 08:30:58;;;;;;;16.65;3.45;;;;;;;20.95;46.30;100631.50;5115880;28;20371;-62
2022/05/21 08:33:26;;;;;;;18.67;3.40;;;;;;;21.06;45.94;100633.53;5115827;28;20030;-62
2022/05/21 08:35:53;;;;;;;52.33;4.47;;;;;;;21.26;45.47;100637.47;5115809;28;20039;-62
2022/05/21 08:38:20;;;;;;;28.33;3.88;;;;;;;21.09;45.78;100632.03;5112940;28;20023;-63
2022/05/21 08:41:04;;;;;;;30.85;3.90;;;;;;;21.12;45.47;100626.66;5115736;28;20106;-62
2022/05/21 08:43:47;;;;;;;47.72;5.07;;;;;;;21.30;45.15;100629.28;5114199;28;20119;-62
2022/05/21 08:46:43;;;;;;;38.53;4.07;;;;;;;21.30;45.26;100630.09;5114893;28;20028;-62
2022/05/21 08:49:37;;;;;;;29.58;4.13;;;;;;;20.95;46.45;100637.03;5072160;28;20039;-62
2022/05/21 08:52:23;;;;;;;136.23;6.95;;;;;;;20.90;46.59;100637.25;5115285;28;20048;-61
2022/05/21 08:54:54;;;;;;;27.23;3.90;;;;;;;20.98;46.62;100637.16;5115309;28;20071;-61
2022/05/21 08:57:43;;;;;;;21.23;4.40;;;;;;;21.00;46.52;100634.06;5116198;28;20027;-62
2022/05/21 09:00:20;;;;;;;27.27;4.82;;;;;;;20.94;46.36;100635.41;5115394;28;20034;-61
2022/05/21 09:02:48;;;;;;;146.52;8.60;;;;;;;20.96;46.15;100635.88;5115776;28;20032;-61
2022/05/21 09:05:17;;;;;;;23.65;4.28;;;;;;;21.01;46.01;100649.50;5115798;28;20045;-61
2022/05/21 09:07:57;;;;;;;29.77;3.80;;;;;;;21.13;45.33;100641.28;5115589;28;20397;-61
2022/05/21 09:10:33;;;;;;;23.13;4.00;;;;;;;21.16;45.31;100648.88;5115559;28;20522;-61
2022/05/21 09:13:25;;;;;;;21.70;3.60;;;;;;;21.15;45.39;100652.78;5098704;28;20036;-61
2022/05/21 09:18:38;;;;;;;50.83;4.53;;;;;;;21.02;45.09;100648.38;5115469;28;20107;-61
2022/05/21 09:21:17;;;;;;;21.60;3.28;;;;;;;20.97;45.43;100654.06;5115547;28;20020;-61
2022/05/21 09:23:48;;;;;;;23.35;3.83;;;;;;;20.86;45.55;100653.69;5115004;28;20036;-61
2022/05/21 09:26:18;;;;;;;27.42;3.95;;;;;;;20.87;45.38;100651.72;5115383;28;20038;-60
2022/05/21 09:28:44;;;;;;;21.52;3.83;;;;;;;20.76;45.56;100654.88;5114953;28;20109;-61
2022/05/21 09:31:12;;;;;;;30.02;3.50;;;;;;;20.67;46.14;100650.56;5112170;28;20027;-61
2022/05/21 09:33:45;;;;;;;28.73;3.97;;;;;;;20.59;46.27;100652.22;5106342;28;20050;-62
2022/05/21 09:36:18;;;;;;;23.98;3.67;;;;;;;20.56;46.37;100658.41;5112947;28;20023;-62
2022/05/21 09:38:53;;;;;;;18.77;4.00;;;;;;;20.56;46.25;100652.06;5095267;28;20059;-60
2022/05/21 09:41:21;;;;;;;;;;;;;;;20.53;46.30;100656.31;5114265;28;20028;-62
2022/05/21 09:46:42;;;;;;;16.00;3.45;;;;;;;20.65;45.77;100661.94;5113487;28;20023;-61
2022/05/21 09:49:29;;;;;;;50.30;4.30;;;;;;;20.61;45.78;100665.69;5113223;28;20088;-61
2022/05/21 09:52:20;;;;;;;27.33;3.58;;;;;;;20.50;45.80;100665.28;5112959;28;20048;-61
2022/05/21 09:54:47;;;;;;;23.58;4.15;;;;;;;20.51;46.17;100655.84;5112592;28;20043;-61
2022/05/21 09:57:21;;;;;;;23.17;3.60;;;;;;;20.52;45.84;100660.22;5113528;28;20024;-61
2022/05/21 10:00:00;;;;;;;29.90;3.92;;;;;;;20.60;45.67;100664.88;5113148;28;20039;-61
2022/05/21 10:02:45;;;;;;;24.92;4.07;;;;;;;20.57;45.67;100660.03;5113284;28;20067;-62
2022/05/21 10:05:19;;;;;;;19.67;3.50;;;;;;;20.60;45.69;100653.81;5098554;28;20061;-62
2022/05/21 10:11:00;;;;;;;23.45;4.40;;;;;;;20.48;46.17;100667.56;5113241;28;20149;-61
2022/05/21 10:13:51;;;;;;;26.92;4.40;;;;;;;20.36;46.54;100672.94;5112855;28;20164;-61
2022/05/21 10:16:35;;;;;;;81.63;6.28;;;;;;;20.35;46.35;100674.06;5113381;28;20390;-62
2022/05/21 10:19:02;;;;;;;61.63;5.68;;;;;;;20.43;46.38;100676.81;5096792;28;20035;-61
2022/05/21 10:21:48;;;;;;;27.77;4.30;;;;;;;20.38;46.65;100687.22;5079068;28;20059;-62
2022/05/21 10:24:36;;;;;;;34.45;4.32;;;;;;;20.33;46.74;100690.16;5090647;28;20043;-61
2022/05/21 10:27:42;;;;;;;30.20;4.18;;;;;;;20.24;46.73;100690.19;5096087;28;20039;-63
2022/05/21 10:30:38;;;;;;;29.75;4.70;;;;;;;20.26;46.66;100698.13;5010321;28;20122;-63
2022/05/21 10:33:23;;;;;;;27.33;4.32;;;;;;;20.29;46.69;100705.75;4988669;28;20092;-64
2022/05/21 10:36:12;;;;;;;31.67;3.90;;;;;;;20.30;46.94;100704.63;5093364;28;20081;-63
2022/05/21 10:38:54;;;;;;;101.45;6.25;;;;;;;20.25;47.20;100707.53;5111169;28;20284;-61
2022/05/21 10:41:49;;;;;;;22.90;3.78;;;;;;;20.13;47.42;100717.34;5110590;28;20107;-63
2022/05/21 10:44:34;;;;;;;33.80;4.20;;;;;;;20.14;47.35;100713.44;5110024;28;20085;-61
2022/05/21 10:47:14;;;;;;;20.85;3.70;;;;;;;20.16;47.68;100730.47;5111699;28;20043;-62
2022/05/21 10:50:15;;;;;;;27.25;4.07;;;;;;;20.13;47.56;100731.13;5110570;28;20047;-60
2022/05/21 10:53:02;;;;;;;31.70;4.28;;;;;;;20.06;47.92;100727.25;5093687;28;20044;-62
2022/05/21 10:55:59;;;;;;;25.25;4.15;;;;;;;20.03;48.04;100725.94;5112758;28;20421;-62
2022/05/21 10:59:08;;;;;;;26.23;4.70;;;;;;;20.03;47.88;100731.47;5088301;28;20512;-62
2022/05/21 11:01:58;;;;;;;34.50;4.32;;;;;;;19.99;47.92;100749.81;5057033;28;20072;-61
2022/05/21 11:04:25;;;;;;;30.98;4.97;;;;;;;19.99;47.90;100749.00;5112772;28;20096;-61
2022/05/21 11:07:03;;;;;;;34.80;4.05;;;;;;;20.03;48.20;100741.69;5113246;28;20111;-61
2022/05/21 11:09:42;;;;;;;28.33;4.15;;;;;;;19.91;48.30;100734.06;5111093;28;20084;-62
2022/05/21 11:12:26;;;;;;;33.00;4.20;;;;;;;19.87;48.51;100739.44;5105801;28;20067;-63
2022/05/21 11:15:06;;;;;;;33.80;4.82;;;;;;;19.80;48.68;100741.09;5108031;28;20053;-63
2022/05/21 11:17:46;;;;;;;36.30;4.35;;;;;;;19.76;48.47;100746.44;5107480;22;20063;-63
2022/05/21 11:20:39;;;;;;;33.28;5.03;;;;;;;19.73;48.66;100749.84;5092128;28;20044;-62
2022/05/21 11:23:15;;;;;;;36.40;5.55;;;;;;;19.69;48.95;100745.31;5091483;28;20047;-61
2022/05/21 11:26:01;;;;;;;42.50;5.60;;;;;;;19.67;48.79;100755.84;5093266;28;20554;-62
2022/05/21 11:28:40;;;;;;;42.63;6.00;;;;;;;19.60;49.00;100745.31;5093102;28;20551;-61
2022/05/21 11:37:19;;;;;;;38.65;5.93;;;;;;;19.60;49.24;100753.59;5091708;28;20114;-61
2022/05/21 11:39:41;;;;;;;36.67;5.10;;;;;;;19.53;49.02;100758.72;5093100;28;20040;-61
2022/05/21 11:42:08;;;;;;;31.77;5.65;;;;;;;19.48;48.79;100767.16;5092916;28;20107;-61
2022/05/21 11:47:24;;;;;;;48.75;8.10;;;;;;;19.48;48.86;100761.66;5093030;28;20144;-62
2022/05/21 11:50:06;;;;;;;52.58;6.80;;;;;;;19.51;48.61;100764.56;5092751;28;20024;-61
2022/05/21 11:52:35;;;;;;;32.67;5.38;;;;;;;19.47;48.87;100766.34;5091825;28;20123;-61
2022/05/21 11:55:11;;;;;;;36.78;5.70;;;;;;;19.41;49.01;100756.63;5091534;28;20036;-61
2022/05/21 11:57:45;;;;;;;33.75;4.88;;;;;;;19.34;49.06;100761.81;5093585;28;20032;-61
2022/05/21 12:00:17;;;;;;;49.95;5.50;;;;;;;19.31;49.33;100774.28;5097307;28;20036;-61
2022/05/21 12:02:53;;;;;;;37.65;5.13;;;;;;;19.32;49.62;100769.59;5096861;28;20469;-61
2022/05/21 12:05:40;;;;;;;38.28;4.65;;;;;;;19.33;49.06;100774.78;5096876;28;20036;-62
2022/05/21 12:08:23;;;;;;;36.20;5.15;;;;;;;19.41;49.37;100773.16;5096818;28;20122;-61
2022/05/21 12:11:06;;;;;;;32.92;4.75;;;;;;;19.34;49.25;100772.81;5097076;28;20032;-61